Historyczne dane pomiarowe

Dodano dane terminowe – wersja testowa.

Dane z okresu 1951-2019

Wersja bazy: 1.34 [2019-03-16, lista zmian], aktualizacja planowana na 2019-04-15

Dane meteo z obszaru Polski uzyskane na podstawie danych udostępnionych przez Instytut Meteorologii i Gospodarki Wodnej – Państwowy Instytut Badawczy.

 

Wybierz Datę:    

       

TemperaturaWilgotnośćZachmurzenieWiatrCiśnienieWidzialnośćZjawiska
 Data    tng td wb rh cc ccl cl cm ch dir g1 g2 mslp ppp      
1973-04-20 00:00:00 -7.0--- -7.9 -7.093wxwx5wx--- 823.5 0.0---wxw1
1973-04-20 01:00:00 -7.0------wxwxwx4wx--- 823.3----wxw1
1973-04-20 02:00:00 -7.1------wxwxwx5wx--- 823.1----wx
1973-04-20 03:00:00 -7.0--- -7.9 -7.093wxwx0wx--- 823.1----wx
1973-04-20 04:00:00 -6.8------wxwxwx0wx--- 823.1----wxw1
1973-04-20 05:00:00 -7.2------wxwxwxwx0wx--- 823.3----wx
1973-04-20 06:00:00 -6.4--- -7.2 -6.494wxwxwxwx4wx--- 823.6 0.0---wxw1
1973-04-20 07:00:00 -5.4------wxwxwx4wx--- 823.7----wx
1973-04-20 08:00:00 -6.5------wxwxwxwx5wx--- 824.0----wx
1973-04-20 09:00:00 -6.4--- -7.2 -6.494wxwxwxwx3wx--- 824.0----wx
1973-04-20 10:00:00 -5.5------wxwxwx5wx--- 824.0----wx
1973-04-20 11:00:00 -5.2------wxwxwx8wx--- 823.9----wx
1973-04-20 12:00:00 -5.1--- -5.4 -5.098wxwx8wx--- 823.7 0.0---wxw1
1973-04-20 13:00:00 -4.6------wxwx10wx--- 823.5----wxw1
1973-04-20 14:00:00 -4.6------wxwx13wx--- 823.3----wxw1
1973-04-20 15:00:00 -5.0--- -5.3 -4.998wxwx14wx--- 823.4----wxw1
1973-04-20 16:00:00 -5.1------wxwx14wx--- 823.3----wxw1
1973-04-20 17:00:00 -5.3------wxwx15wx--- 823.2----wxw1
1973-04-20 18:00:00 -5.4--- -5.7 -5.398wxwx15wx--- 823.4 6.2---wxw1
1973-04-20 19:00:00 -5.5------wxwx14wx--- 823.4----wxw1
1973-04-20 20:00:00 -5.7------wxwx15wx--- 823.3----wxw1
1973-04-20 21:00:00 -5.7--- -6.1 -5.697wxwx17wx--- 823.0----wxw1
1973-04-20 22:00:00 -5.6------wxwx18wx--- 822.9----wxw1
1973-04-20 23:00:00 -5.7------wxwx18wx--- 823.0----wxw1

 

Źródłem pochodzenia danych jest Instytut Meteorologii i Gospodarki Wodnej – Państwowy Instytut Badawczy. Dane Instytutu Meteorologii i Gospodarki Wodnej – Państwowego Instytutu Badawczego zostały przetworzone.

Dane źródłowe można odnaleźć na stronie https://dane.imgw.pl